TimeCST,TemperatureF,Dew PointF,Humidity,Sea Level PressureIn,VisibilityMPH,Wind Direction,Wind SpeedMPH,Gust SpeedMPH,PrecipitationIn,Events,Conditions,WindDirDegrees,DateUTC
12:15 AM,12.2,5.0,73,30.17,10.0,SE,3.5,-,N/A,,Overcast,130,2013-02-01 06:15:00
12:35 AM,12.7,5.7,74,30.17,10.0,Calm,Calm,-,N/A,,Overcast,0,2013-02-01 06:35:00
12:55 AM,12.6,5.7,74,30.16,10.0,Calm,Calm,-,N/A,,Overcast,0,2013-02-01 06:55:00
1:15 AM,11.7,5.0,75,30.15,10.0,Calm,Calm,-,N/A,,Overcast,0,2013-02-01 07:15:00
1:35 AM,12.7,5.9,74,30.14,10.0,Calm,Calm,-,N/A,,Mostly Cloudy,0,2013-02-01 07:35:00
2:15 AM,10.2,4.6,78,30.12,10.0,Calm,Calm,-,N/A,,Clear,0,2013-02-01 08:15:00
2:35 AM,10.9,5.7,79,30.12,10.0,Calm,Calm,-,N/A,,Clear,0,2013-02-01 08:35:00
2:55 AM,12.0,6.4,78,30.12,10.0,Calm,Calm,-,N/A,,Clear,0,2013-02-01 08:55:00
3:15 AM,11.8,6.3,78,30.11,10.0,Calm,Calm,-,N/A,,Clear,0,2013-02-01 09:15:00
3:35 AM,12.2,7.2,80,30.10,10.0,Calm,Calm,-,N/A,,Clear,0,2013-02-01 09:35:00
4:15 AM,13.6,8.6,80,30.09,10.0,SSW,3.5,-,N/A,,Clear,200,2013-02-01 10:15:00
4:35 AM,14.9,9.7,80,30.08,10.0,SW,4.6,-,N/A,,Clear,220,2013-02-01 10:35:00
4:55 AM,14.5,9.7,81,30.06,10.0,Calm,Calm,-,N/A,,Scattered Clouds,0,2013-02-01 10:55:00
5:15 AM,16.7,12.0,82,30.06,10.0,SSW,5.8,-,N/A,,Scattered Clouds,210,2013-02-01 11:15:00
5:35 AM,19.4,14.4,81,30.05,10.0,SW,8.1,-,N/A,,Mostly Cloudy,220,2013-02-01 11:35:00
5:55 AM,20.8,15.6,80,30.05,10.0,SSW,5.8,-,N/A,,Overcast,210,2013-02-01 11:55:00
6:15 AM,22.1,16.7,80,30.04,10.0,SW,6.9,-,N/A,,Mostly Cloudy,230,2013-02-01 12:15:00
6:35 AM,22.6,17.2,80,30.03,10.0,Calm,Calm,-,N/A,,Mostly Cloudy,0,2013-02-01 12:35:00
7:15 AM,18.5,14.9,86,30.03,10.0,Calm,Calm,-,N/A,,Clear,0,2013-02-01 13:15:00
7:35 AM,21.2,16.9,83,30.02,10.0,Calm,Calm,-,N/A,,Scattered Clouds,0,2013-02-01 13:35:00
8:15 AM,24.8,19.4,80,30.02,10.0,West,3.5,-,N/A,,Overcast,280,2013-02-01 14:15:00
8:35 AM,25.7,19.9,79,30.02,10.0,West,4.6,-,N/A,,Scattered Clouds,260,2013-02-01 14:35:00
9:15 AM,29.7,21.6,72,30.01,10.0,WSW,3.5,-,N/A,,Clear,240,2013-02-01 15:15:00
9:35 AM,30.2,21.6,70,30.01,10.0,SW,4.6,-,N/A,,Clear,230,2013-02-01 15:35:00
9:55 AM,32.4,23.0,68,30.00,10.0,WSW,8.1,-,N/A,,Mostly Cloudy,240,2013-02-01 15:55:00
10:15 AM,35.2,23.9,63,30.00,10.0,WSW,6.9,-,N/A,,Overcast,240,2013-02-01 16:15:00
10:35 AM,36.7,25.0,63,30.00,10.0,WSW,9.2,-,N/A,,Overcast,250,2013-02-01 16:35:00
10:55 AM,37.9,25.9,62,29.99,10.0,WSW,8.1,-,N/A,,Mostly Cloudy,250,2013-02-01 16:55:00
11:15 AM,39.6,26.1,58,29.99,10.0,WSW,9.2,-,N/A,,Scattered Clouds,250,2013-02-01 17:15:00
11:35 AM,41.0,27.1,58,29.99,10.0,West,10.4,-,N/A,,Clear,260,2013-02-01 17:35:00
11:55 AM,41.5,27.0,56,29.98,10.0,West,12.7,-,N/A,,Clear,270,2013-02-01 17:55:00
12:15 PM,42.8,27.7,55,29.97,10.0,West,11.5,16.1,N/A,,Scattered Clouds,280,2013-02-01 18:15:00
12:35 PM,43.9,28.4,55,29.97,10.0,West,15.0,-,N/A,,Mostly Cloudy,270,2013-02-01 18:35:00
12:55 PM,42.3,27.9,57,29.96,10.0,West,11.5,-,N/A,,Overcast,270,2013-02-01 18:55:00
1:15 PM,41.9,28.6,59,29.96,10.0,West,11.5,16.1,N/A,,Overcast,280,2013-02-01 19:15:00
1:35 PM,41.7,28.4,59,29.96,10.0,West,10.4,-,N/A,,Overcast,270,2013-02-01 19:35:00
2:15 PM,42.8,30.7,62,29.94,10.0,WNW,11.5,-,N/A,,Overcast,290,2013-02-01 20:15:00
2:35 PM,43.5,31.1,62,29.94,10.0,West,10.4,-,N/A,,Overcast,280,2013-02-01 20:35:00
2:55 PM,45.3,31.8,59,29.94,10.0,WNW,15.0,19.6,N/A,,Mostly Cloudy,290,2013-02-01 20:55:00
3:15 PM,45.0,31.6,60,29.95,10.0,WNW,16.1,19.6,N/A,,Overcast,290,2013-02-01 21:15:00
3:35 PM,44.6,31.8,61,29.95,10.0,WNW,8.1,-,N/A,,Overcast,300,2013-02-01 21:35:00
3:55 PM,45.0,31.6,60,29.95,10.0,NW,11.5,17.3,N/A,,Mostly Cloudy,310,2013-02-01 21:55:00
4:15 PM,44.6,31.6,60,29.96,10.0,WNW,9.2,16.1,N/A,,Mostly Cloudy,300,2013-02-01 22:15:00
4:35 PM,44.1,31.1,60,29.96,10.0,WNW,10.4,-,N/A,,Mostly Cloudy,300,2013-02-01 22:35:00
4:55 PM,43.7,32.0,63,29.97,10.0,NW,9.2,-,N/A,,Mostly Cloudy,310,2013-02-01 22:55:00
5:15 PM,43.0,32.0,65,29.97,10.0,NW,8.1,-,N/A,,Scattered Clouds,320,2013-02-01 23:15:00
5:35 PM,41.0,32.0,70,29.98,10.0,NW,6.9,-,N/A,,Scattered Clouds,320,2013-02-01 23:35:00
5:55 PM,40.1,32.0,73,29.98,10.0,NW,6.9,-,N/A,,Mostly Cloudy,320,2013-02-01 23:55:00
6:15 PM,39.0,31.1,73,29.99,10.0,NW,6.9,-,N/A,,Scattered Clouds,310,2013-02-02 00:15:00
6:35 PM,37.0,30.7,78,30.00,10.0,NW,5.8,-,N/A,,Clear,320,2013-02-02 00:35:00
6:55 PM,35.6,30.7,82,30.01,10.0,NNW,5.8,-,N/A,,Mostly Cloudy,340,2013-02-02 00:55:00
7:15 PM,37.4,32.0,81,30.03,10.0,NNW,4.6,-,N/A,,Overcast,330,2013-02-02 01:15:00
7:35 PM,37.0,31.8,81,30.03,10.0,NNW,6.9,-,N/A,,Overcast,330,2013-02-02 01:35:00
7:55 PM,37.0,32.0,82,30.04,10.0,NW,4.6,-,N/A,,Overcast,320,2013-02-02 01:55:00
8:15 PM,36.5,31.8,83,30.04,10.0,NW,4.6,-,N/A,,Overcast,320,2013-02-02 02:15:00
8:35 PM,36.1,31.8,84,30.05,10.0,NNW,8.1,-,N/A,,Overcast,330,2013-02-02 02:35:00
8:55 PM,36.5,31.8,83,30.06,10.0,NNW,6.9,-,N/A,,Overcast,330,2013-02-02 02:55:00
9:15 PM,35.2,31.3,85,30.07,10.0,WNW,3.5,-,N/A,,Overcast,300,2013-02-02 03:15:00
9:35 PM,34.7,30.9,86,30.08,10.0,NW,3.5,-,N/A,,Overcast,310,2013-02-02 03:35:00
9:55 PM,32.9,30.2,90,30.08,10.0,West,5.8,-,N/A,,Scattered Clouds,270,2013-02-02 03:55:00
10:15 PM,31.6,28.8,89,30.09,10.0,WNW,3.5,-,N/A,,Clear,290,2013-02-02 04:15:00
10:35 PM,30.9,28.8,92,30.09,10.0,West,4.6,-,N/A,,Clear,280,2013-02-02 04:35:00
10:55 PM,30.9,28.8,92,30.09,10.0,West,5.8,-,N/A,,Clear,270,2013-02-02 04:55:00
11:15 PM,30.6,28.4,92,30.09,10.0,West,5.8,-,N/A,,Clear,260,2013-02-02 05:15:00
11:35 PM,30.9,28.8,92,30.09,10.0,West,6.9,-,N/A,,Scattered Clouds,270,2013-02-02 05:35:00
11:55 PM,32.0,29.8,92,30.10,10.0,West,6.9,-,N/A,,Overcast,280,2013-02-02 05:55:00